Philadelphia, Pennsylvania
Traffic Map
Current Weather Conditions
Philadelphia, Pennsylvania
Overcast
Overcast
23°
Feels Like: 23°
Wind Chill: 23° Ceiling: 5000
Heat Index: 23° Visibility: 10mi
Dew Point: 19° Wind: 0mph
Humidity: 79% Direction: ° ()
Pressure: 30.02in Gusts: 0mph
Raw Report DataKPHL 301405Z 00000KT 10SM SCT013 SCT018 OVC050 23/19 A3002 RMK AO2 SCT018 V BKN T02330194
Traffic Incident Summary
Active as of:
Severity:
Category:
InformationThere was an issue retrieving the traffic information for this location. Please try a different location or try again shortly.
Advertisements
Track Severe Weather on mobile